createdAt,value
2018-12-15T00:00:52.729Z,101248
2018-12-15T00:03:21.590Z,101250
2018-12-15T00:05:50.428Z,101252
2018-12-15T00:08:20.008Z,101257
2018-12-15T00:10:48.836Z,101253
2018-12-15T00:13:17.686Z,101252
2018-12-15T00:15:46.514Z,101246
2018-12-15T00:18:15.356Z,101256
2018-12-15T00:20:44.195Z,101256
2018-12-15T00:23:13.038Z,101250
2018-12-15T00:25:41.875Z,101254
2018-12-15T00:28:10.718Z,101254
2018-12-15T00:30:39.548Z,101260
2018-12-15T00:33:08.387Z,101253
2018-12-15T00:35:37.222Z,101266
2018-12-15T00:38:06.791Z,101266
2018-12-15T00:40:35.638Z,101285
2018-12-15T00:43:04.482Z,101266
2018-12-15T00:45:33.316Z,101264
2018-12-15T00:48:02.149Z,101272
2018-12-15T00:50:30.991Z,101276
2018-12-15T00:52:59.842Z,101271
2018-12-15T00:55:28.689Z,101271
2018-12-15T00:57:57.550Z,101272
2018-12-15T01:00:26.391Z,101268
2018-12-15T01:02:55.223Z,101271
2018-12-15T01:05:24.059Z,101271
2018-12-15T01:07:52.906Z,101281
2018-12-15T01:10:21.737Z,101280
2018-12-15T01:12:50.565Z,101284
2018-12-15T01:15:25.601Z,101282
2018-12-15T01:17:54.446Z,101299
2018-12-15T01:20:23.295Z,101289
2018-12-15T01:22:52.149Z,101293
2018-12-15T01:25:20.979Z,101291
2018-12-15T01:27:49.818Z,101296
2018-12-15T01:30:18.659Z,101302
2018-12-15T01:32:47.489Z,101306
2018-12-15T01:35:16.328Z,101303
2018-12-15T01:37:45.171Z,101310
2018-12-15T01:40:14.014Z,101315
2018-12-15T01:42:42.897Z,101312
2018-12-15T01:45:11.686Z,101319
2018-12-15T01:47:40.557Z,101314
2018-12-15T01:50:09.378Z,101310
2018-12-15T01:52:38.213Z,101310
2018-12-15T01:55:07.059Z,101312
2018-12-15T01:57:35.910Z,101306
2018-12-15T02:00:05.492Z,101307
2018-12-15T02:02:34.326Z,101318
2018-12-15T02:05:03.164Z,101315
2018-12-15T02:07:32.006Z,101309
2018-12-15T02:10:00.846Z,101306
2018-12-15T02:12:29.674Z,101305
2018-12-15T02:14:58.524Z,101303
2018-12-15T02:17:33.460Z,101306
2018-12-15T02:19:56.208Z,101311
2018-12-15T02:22:25.047Z,101319
2018-12-15T02:24:53.891Z,101312
2018-12-15T02:27:22.726Z,101324
2018-12-15T02:29:51.559Z,101321
2018-12-15T02:32:20.415Z,101322
2018-12-15T02:34:49.260Z,101319
2018-12-15T02:37:18.121Z,101319
2018-12-15T02:39:46.969Z,101323
2018-12-15T02:42:15.856Z,101327
2018-12-15T02:44:45.412Z,101326
2018-12-15T02:47:14.246Z,101329
2018-12-15T02:49:43.084Z,101322
2018-12-15T02:52:11.923Z,101322
2018-12-15T02:54:40.770Z,101319
2018-12-15T02:57:09.617Z,101330
2018-12-15T02:59:38.449Z,101322
2018-12-15T03:02:07.295Z,101320
2018-12-15T03:04:36.124Z,101317
2018-12-15T03:07:04.964Z,101337
2018-12-15T03:09:33.805Z,101325
2018-12-15T03:12:02.644Z,101336
2018-12-15T03:14:31.471Z,101336
2018-12-15T03:17:03.131Z,101348
2018-12-15T03:19:31.978Z,101346
2018-12-15T03:22:00.813Z,101338
2018-12-15T03:24:29.639Z,101335
2018-12-15T03:26:58.475Z,101334
2018-12-15T03:29:27.320Z,101341
2018-12-15T03:31:56.156Z,101345
2018-12-15T03:34:24.995Z,101337
2018-12-15T03:36:53.902Z,101342
2018-12-15T03:39:22.749Z,101356
2018-12-15T03:41:51.596Z,101341
2018-12-15T03:44:20.447Z,101341
2018-12-15T03:46:49.269Z,101341
2018-12-15T03:49:18.108Z,101340
2018-12-15T03:51:46.954Z,101342
2018-12-15T03:54:15.792Z,101361
2018-12-15T03:56:44.666Z,101348
2018-12-15T03:59:13.508Z,101350
2018-12-15T04:01:42.365Z,101346
2018-12-15T04:04:11.218Z,101340
2018-12-15T04:06:40.063Z,101342
2018-12-15T04:09:08.900Z,101342
2018-12-15T04:11:37.734Z,101335
2018-12-15T04:14:06.576Z,101340
2018-12-15T04:16:35.408Z,101331
2018-12-15T04:19:04.257Z,101325
2018-12-15T04:21:33.110Z,101328
2018-12-15T04:24:01.947Z,101327
2018-12-15T04:26:31.380Z,101319
2018-12-15T04:29:00.230Z,101315
2018-12-15T04:31:29.062Z,101324
2018-12-15T04:33:57.903Z,101320
2018-12-15T04:36:26.757Z,101316
2018-12-15T04:38:55.603Z,101313
2018-12-15T04:41:24.442Z,101316
2018-12-15T04:43:53.281Z,101313
2018-12-15T04:46:22.131Z,101320
2018-12-15T04:48:50.971Z,101314
2018-12-15T04:51:20.560Z,101313
2018-12-15T04:53:49.401Z,101317
2018-12-15T04:56:18.243Z,101312
2018-12-15T04:58:47.081Z,101316
2018-12-15T05:01:15.927Z,101311
2018-12-15T05:03:45.512Z,101320
2018-12-15T05:06:14.368Z,101311
2018-12-15T05:08:43.207Z,101316
2018-12-15T05:11:12.789Z,101316
2018-12-15T05:13:41.617Z,101321
2018-12-15T05:16:10.471Z,101311
2018-12-15T05:18:44.462Z,101306
2018-12-15T05:21:13.018Z,101310
2018-12-15T05:23:41.853Z,101318
2018-12-15T05:26:10.690Z,101310
2018-12-15T05:28:39.525Z,101317
2018-12-15T05:31:08.356Z,101310
2018-12-15T05:33:37.194Z,101318
2018-12-15T05:36:06.028Z,101314
2018-12-15T05:38:34.886Z,101322
2018-12-15T05:41:03.709Z,101317
2018-12-15T05:43:33.298Z,101317
2018-12-15T05:46:02.146Z,101324
2018-12-15T05:48:30.997Z,101320
2018-12-15T05:50:59.840Z,101322
2018-12-15T05:53:28.683Z,101322
2018-12-15T05:55:57.514Z,101322
2018-12-15T05:58:26.342Z,101323
2018-12-15T06:00:55.188Z,101329
2018-12-15T06:03:24.770Z,101328
2018-12-15T06:05:53.618Z,101329
2018-12-15T06:08:22.476Z,101329
2018-12-15T06:10:51.321Z,101331
2018-12-15T06:13:20.152Z,101327
2018-12-15T06:15:49.742Z,101330
2018-12-15T06:18:18.583Z,101335
2018-12-15T06:20:47.430Z,101336
2018-12-15T06:23:16.284Z,101338
2018-12-15T06:25:45.110Z,101337
2018-12-15T06:28:13.957Z,101342
2018-12-15T06:30:42.797Z,101338
2018-12-15T06:33:12.390Z,101338
2018-12-15T06:35:41.978Z,101337
2018-12-15T06:38:10.860Z,101341
2018-12-15T06:40:39.678Z,101345
2018-12-15T06:43:08.514Z,101334
2018-12-15T06:45:37.346Z,101341
2018-12-15T06:48:06.200Z,101337
2018-12-15T06:50:35.052Z,101336
2018-12-15T06:53:03.886Z,101341
2018-12-15T06:55:32.730Z,101337
2018-12-15T06:58:01.570Z,101343
2018-12-15T07:00:30.423Z,101345
2018-12-15T07:02:59.284Z,101341
2018-12-15T07:05:28.856Z,101340
2018-12-15T07:07:57.702Z,101340
2018-12-15T07:10:26.561Z,101345
2018-12-15T07:12:55.390Z,101337
2018-12-15T07:15:24.262Z,101348
2018-12-15T07:17:53.126Z,101351
2018-12-15T07:20:21.986Z,101348
2018-12-15T07:22:50.855Z,101358
2018-12-15T07:25:19.660Z,101359
2018-12-15T07:27:48.529Z,101350
2018-12-15T07:30:18.081Z,101360
2018-12-15T07:32:46.923Z,101355
2018-12-15T07:35:15.762Z,101360
2018-12-15T07:37:44.629Z,101361
2018-12-15T07:40:13.545Z,101362
2018-12-15T07:42:43.198Z,101358
2018-12-15T07:45:12.050Z,101371
2018-12-15T07:47:41.641Z,101362
2018-12-15T07:50:10.495Z,101365
2018-12-15T07:52:39.329Z,101371
2018-12-15T07:55:08.166Z,101369
2018-12-15T07:57:37.001Z,101376
2018-12-15T08:00:05.846Z,101372
2018-12-15T08:02:34.679Z,101371
2018-12-15T08:05:03.516Z,101376
2018-12-15T08:07:32.373Z,101374
2018-12-15T08:10:01.219Z,101375
2018-12-15T08:12:35.742Z,101371
2018-12-15T08:15:04.581Z,101373
2018-12-15T08:17:34.167Z,101365
2018-12-15T08:20:03.015Z,101368
2018-12-15T08:22:31.886Z,101373
2018-12-15T08:25:01.429Z,101377
2018-12-15T08:27:30.268Z,101373
2018-12-15T08:29:59.120Z,101370
2018-12-15T08:32:27.988Z,101375
2018-12-15T08:34:56.824Z,101372
2018-12-15T08:37:26.409Z,101372
2018-12-15T08:39:55.257Z,101370
2018-12-15T08:42:24.097Z,101372
2018-12-15T08:44:52.957Z,101385
2018-12-15T08:47:21.794Z,101386
2018-12-15T08:49:50.633Z,101379
2018-12-15T08:52:19.473Z,101378
2018-12-15T08:54:48.321Z,101389
2018-12-15T08:57:17.147Z,101392
2018-12-15T08:59:45.995Z,101385
2018-12-15T09:02:14.825Z,101393
2018-12-15T09:04:43.667Z,101388
2018-12-15T09:07:12.507Z,101388
2018-12-15T09:09:41.346Z,101390
2018-12-15T09:12:10.170Z,101387
2018-12-15T09:14:39.057Z,101383
2018-12-15T09:17:07.873Z,101387
2018-12-15T09:19:36.757Z,101383
2018-12-15T09:22:11.571Z,101385
2018-12-15T09:24:35.169Z,101399
2018-12-15T09:27:04.730Z,101395
2018-12-15T09:29:34.325Z,101389
2018-12-15T09:32:03.203Z,101394
2018-12-15T09:34:32.011Z,101388
2018-12-15T09:37:00.857Z,101391
2018-12-15T09:39:29.683Z,101383
2018-12-15T09:41:58.528Z,101377
2018-12-15T09:44:27.376Z,101379
2018-12-15T09:46:56.958Z,101384
2018-12-15T09:49:25.842Z,101385
2018-12-15T09:51:54.642Z,101388
2018-12-15T09:54:23.478Z,101385
2018-12-15T09:56:52.314Z,101386
2018-12-15T09:59:21.205Z,101385
2018-12-15T10:01:50.014Z,101376
2018-12-15T10:04:19.592Z,101376
2018-12-15T10:06:48.428Z,101380
2018-12-15T10:09:17.304Z,101387
2018-12-15T10:11:46.140Z,101380
2018-12-15T10:14:14.993Z,101372
2018-12-15T10:16:43.815Z,101377
2018-12-15T10:19:12.653Z,101374
2018-12-15T10:21:42.269Z,101372
2018-12-15T10:24:11.875Z,101363
2018-12-15T10:26:41.470Z,101370
2018-12-15T10:29:11.054Z,101370
2018-12-15T10:31:45.486Z,101359
2018-12-15T10:34:14.344Z,101370
2018-12-15T10:36:43.186Z,101365
2018-12-15T10:39:12.775Z,101362
2018-12-15T10:41:41.624Z,101362
2018-12-15T10:44:10.455Z,101364
2018-12-15T10:46:39.304Z,101351
2018-12-15T10:49:08.136Z,101361
2018-12-15T10:51:37.736Z,101350
2018-12-15T10:54:06.621Z,101347
2018-12-15T10:56:35.454Z,101343
2018-12-15T10:59:05.010Z,101325
2018-12-15T11:01:33.989Z,101340
2018-12-15T11:04:02.858Z,101326
2018-12-15T11:06:31.732Z,101329
2018-12-15T11:09:01.284Z,101322
2018-12-15T11:11:30.120Z,101335
2018-12-15T11:13:58.966Z,101332
2018-12-15T11:16:28.553Z,101333
2018-12-15T11:18:57.386Z,101329
2018-12-15T11:21:26.258Z,101319
2018-12-15T11:23:55.144Z,101308
2018-12-15T11:26:23.968Z,101307
2018-12-15T11:28:53.602Z,101308
2018-12-15T11:31:23.182Z,101310
2018-12-15T11:33:52.020Z,101308
2018-12-15T11:36:20.860Z,101307
2018-12-15T11:38:50.439Z,101291
2018-12-15T11:41:19.304Z,101290
2018-12-15T11:43:48.149Z,101301
2018-12-15T11:46:17.020Z,101297
2018-12-15T11:48:46.425Z,101286
2018-12-15T11:51:15.288Z,101275
2018-12-15T11:53:44.117Z,101270
2018-12-15T11:56:12.981Z,101266
2018-12-15T11:58:41.831Z,101263
2018-12-15T12:01:10.678Z,101258
2018-12-15T12:03:39.521Z,101253
2018-12-15T12:06:08.354Z,101259
2018-12-15T12:08:37.209Z,101266
2018-12-15T12:11:06.047Z,101263
2018-12-15T12:13:34.912Z,101261
2018-12-15T12:16:04.361Z,101259
2018-12-15T12:18:33.226Z,101256
2018-12-15T12:21:02.807Z,101248
2018-12-15T12:23:31.639Z,101255
2018-12-15T12:26:00.480Z,101249
2018-12-15T12:28:29.329Z,101241
2018-12-15T12:30:58.174Z,101247
2018-12-15T12:33:27.783Z,101245
2018-12-15T12:35:56.619Z,101249
2018-12-15T12:38:25.454Z,101251
2018-12-15T12:40:54.313Z,101246
2018-12-15T12:43:23.148Z,101241
2018-12-15T12:45:52.731Z,101233
2018-12-15T12:48:21.578Z,101230
2018-12-15T12:50:50.424Z,101224
2018-12-15T12:53:19.260Z,101223
2018-12-15T12:55:48.113Z,101222
2018-12-15T12:58:16.953Z,101222
2018-12-15T13:00:45.780Z,101216
2018-12-15T13:03:14.628Z,101219
2018-12-15T13:05:43.480Z,101221
2018-12-15T13:08:13.069Z,101207
2018-12-15T13:10:41.952Z,101209
2018-12-15T13:13:10.774Z,101207
2018-12-15T13:15:39.619Z,101204
2018-12-15T13:18:08.466Z,101208
2018-12-15T13:20:37.312Z,101206
2018-12-15T13:23:06.234Z,101213
2018-12-15T13:25:34.990Z,101214
2018-12-15T13:28:03.839Z,101216
2018-12-15T13:30:32.682Z,101222
2018-12-15T13:33:01.628Z,101223
2018-12-15T13:35:31.290Z,101218
2018-12-15T13:38:00.148Z,101218
2018-12-15T13:40:29.009Z,101218
2018-12-15T13:42:57.861Z,101216
2018-12-15T13:45:26.697Z,101221
2018-12-15T13:47:55.541Z,101216
2018-12-15T13:50:24.375Z,101223
2018-12-15T13:52:53.215Z,101227
2018-12-15T13:55:22.047Z,101227
2018-12-15T13:57:50.883Z,101230
2018-12-15T14:00:19.744Z,101231
2018-12-15T14:02:48.579Z,101227
2018-12-15T14:05:17.422Z,101231
2018-12-15T14:07:46.266Z,101228
2018-12-15T14:10:15.107Z,101237
2018-12-15T14:12:45.088Z,101237
2018-12-15T14:15:12.778Z,101228
2018-12-15T14:17:41.608Z,101232
2018-12-15T14:20:16.586Z,101233
2018-12-15T14:22:39.297Z,101230
2018-12-15T14:25:08.141Z,101230
2018-12-15T14:27:37.736Z,101226
2018-12-15T14:30:06.582Z,101233
2018-12-15T14:32:35.421Z,101231
2018-12-15T14:35:04.258Z,101233
2018-12-15T14:37:33.103Z,101225
2018-12-15T14:40:01.955Z,101212
2018-12-15T14:42:30.788Z,101213
2018-12-15T14:45:00.370Z,101211
2018-12-15T14:47:29.256Z,101211
2018-12-15T14:49:58.065Z,101211
2018-12-15T14:52:26.913Z,101210
2018-12-15T14:54:55.740Z,101213
2018-12-15T14:57:25.367Z,101210
2018-12-15T14:59:54.237Z,101205
2018-12-15T15:02:23.812Z,101197
2018-12-15T15:04:52.674Z,101201
2018-12-15T15:07:22.232Z,101203
2018-12-15T15:09:51.068Z,101211
2018-12-15T15:12:19.914Z,101193
2018-12-15T15:14:48.746Z,101189
2018-12-15T15:17:17.589Z,101176
2018-12-15T15:19:46.429Z,101181
2018-12-15T15:22:16.054Z,101176
2018-12-15T15:24:44.881Z,101178
2018-12-15T15:27:14.462Z,101170
2018-12-15T15:29:43.305Z,101163
2018-12-15T15:32:12.150Z,101168
2018-12-15T15:34:40.972Z,101159
2018-12-15T15:37:09.810Z,101152
2018-12-15T15:39:38.646Z,101154
2018-12-15T15:42:08.264Z,101159
2018-12-15T15:44:37.068Z,101143
2018-12-15T15:47:05.905Z,101153
2018-12-15T15:49:34.758Z,101142
2018-12-15T15:52:03.599Z,101147
2018-12-15T15:54:32.465Z,101140
2018-12-15T15:57:01.304Z,101143
2018-12-15T15:59:30.143Z,101133
2018-12-15T16:01:59.008Z,101131
2018-12-15T16:04:27.806Z,101125
2018-12-15T16:06:56.650Z,101121
2018-12-15T16:09:25.504Z,101122
2018-12-15T16:11:54.364Z,101116
2018-12-15T16:14:23.185Z,101109
2018-12-15T16:16:52.066Z,101113
2018-12-15T16:19:20.879Z,101095
2018-12-15T16:21:50.468Z,101100
2018-12-15T16:24:20.038Z,101110
2018-12-15T16:26:48.873Z,101113
2018-12-15T16:29:17.708Z,101111
2018-12-15T16:31:46.553Z,101105
2018-12-15T16:34:15.409Z,101103
2018-12-15T16:36:44.237Z,101106
2018-12-15T16:39:13.079Z,101094
2018-12-15T16:41:42.424Z,101103
2018-12-15T16:44:10.775Z,101101
2018-12-15T16:46:39.605Z,101102
2018-12-15T16:49:09.197Z,101089
2018-12-15T16:51:38.767Z,101083
2018-12-15T16:54:07.602Z,101083
2018-12-15T16:56:37.196Z,101076
2018-12-15T16:59:06.790Z,101073
2018-12-15T17:01:35.644Z,101078
2018-12-15T17:04:04.471Z,101066
2018-12-15T17:06:33.316Z,101068
2018-12-15T17:09:02.156Z,101067
2018-12-15T17:11:31.023Z,101067
2018-12-15T17:13:59.860Z,101068
2018-12-15T17:16:28.690Z,101065
2018-12-15T17:18:57.538Z,101063
2018-12-15T17:21:26.382Z,101064
2018-12-15T17:23:55.214Z,101065
2018-12-15T17:26:24.128Z,101067
2018-12-15T17:28:52.888Z,101075
2018-12-15T17:31:21.729Z,101065
2018-12-15T17:33:50.569Z,101067
2018-12-15T17:36:19.416Z,101066
2018-12-15T17:38:48.352Z,101056
2018-12-15T17:41:17.153Z,101052
2018-12-15T17:43:45.999Z,101057
2018-12-15T17:46:14.844Z,101054
2018-12-15T17:48:43.678Z,101064
2018-12-15T17:51:13.286Z,101047
2018-12-15T17:53:42.116Z,101034
2018-12-15T17:56:10.955Z,101036
2018-12-15T17:58:39.796Z,101031
2018-12-15T18:01:08.646Z,101022
2018-12-15T18:03:37.497Z,101025
2018-12-15T18:06:06.350Z,101023
2018-12-15T18:08:35.199Z,101019
2018-12-15T18:11:04.800Z,101018
2018-12-15T18:13:34.403Z,101002
2018-12-15T18:16:03.987Z,101005
2018-12-15T18:18:32.814Z,101005
2018-12-15T18:21:01.686Z,100998
2018-12-15T18:23:30.505Z,100989
2018-12-15T18:25:59.343Z,100985
2018-12-15T18:28:28.190Z,100987
2018-12-15T18:30:57.028Z,100981
2018-12-15T18:33:25.878Z,100989
2018-12-15T18:35:54.719Z,100967
2018-12-15T18:38:23.570Z,100966
2018-12-15T18:40:52.412Z,100968
2018-12-15T18:43:21.295Z,100974
2018-12-15T18:45:50.901Z,100969
2018-12-15T18:48:20.489Z,100961
2018-12-15T18:50:50.067Z,100963
2018-12-15T18:53:19.602Z,100952
2018-12-15T18:55:47.914Z,100957
2018-12-15T18:58:16.749Z,100952
2018-12-15T19:00:45.590Z,100954
2018-12-15T19:03:14.432Z,100943
2018-12-15T19:05:43.288Z,100930
2018-12-15T19:08:12.140Z,100925
2018-12-15T19:10:41.719Z,100913
2018-12-15T19:13:10.565Z,100911
2018-12-15T19:15:39.411Z,100905
2018-12-15T19:18:09.002Z,100907
2018-12-15T19:20:38.433Z,100893
2018-12-15T19:23:08.027Z,100896
2018-12-15T19:25:36.869Z,100890
2018-12-15T19:28:05.718Z,100885
2018-12-15T19:30:35.302Z,100890
2018-12-15T19:33:04.158Z,100878
2018-12-15T19:35:33.018Z,100879
2018-12-15T19:38:01.898Z,100872
2018-12-15T19:40:31.216Z,100873
2018-12-15T19:43:00.023Z,100873
2018-12-15T19:45:28.869Z,100875
2018-12-15T19:47:57.804Z,100866
2018-12-15T19:50:27.349Z,100870
2018-12-15T19:52:56.245Z,100872
2018-12-15T19:55:25.050Z,100864
2018-12-15T19:57:54.644Z,100863
2018-12-15T20:00:24.976Z,100864
2018-12-15T20:02:53.135Z,100864
2018-12-15T20:05:22.010Z,100863
2018-12-15T20:07:50.856Z,100851
2018-12-15T20:10:19.707Z,100846
2018-12-15T20:12:48.557Z,100845
2018-12-15T20:15:17.405Z,100839
2018-12-15T20:17:46.274Z,100833
2018-12-15T20:20:15.848Z,100831
2018-12-15T20:22:44.722Z,100833
2018-12-15T20:25:13.594Z,100832
2018-12-15T20:27:42.511Z,100834
2018-12-15T20:30:11.400Z,100820
2018-12-15T20:32:40.217Z,100819
2018-12-15T20:35:09.053Z,100817
2018-12-15T20:37:37.920Z,100814
2018-12-15T20:40:07.512Z,100807
2018-12-15T20:42:36.348Z,100804
2018-12-15T20:45:05.206Z,100806
2018-12-15T20:47:34.056Z,100802
2018-12-15T20:50:02.896Z,100798
2018-12-15T20:52:31.796Z,100791
2018-12-15T20:55:01.387Z,100783
2018-12-15T20:57:30.270Z,100786
2018-12-15T20:59:59.099Z,100771
2018-12-15T21:02:27.968Z,100785
2018-12-15T21:04:56.838Z,100782
2018-12-15T21:07:25.688Z,100778
2018-12-15T21:09:54.550Z,100770
2018-12-15T21:12:23.409Z,100766
2018-12-15T21:14:53.801Z,100754
2018-12-15T21:17:21.096Z,100745
2018-12-15T21:19:49.989Z,100746
2018-12-15T21:22:20.412Z,100735
2018-12-15T21:24:47.664Z,100745
2018-12-15T21:27:16.526Z,100740
2018-12-15T21:29:45.373Z,100732
2018-12-15T21:32:14.208Z,100728
2018-12-15T21:34:43.810Z,100721
2018-12-15T21:37:12.680Z,100728
2018-12-15T21:39:41.513Z,100725
2018-12-15T21:42:10.365Z,100724
2018-12-15T21:44:39.285Z,100722
2018-12-15T21:47:08.091Z,100716
2018-12-15T21:49:36.948Z,100711
2018-12-15T21:52:06.540Z,100711
2018-12-15T21:54:35.393Z,100716
2018-12-15T21:57:04.238Z,100713
2018-12-15T21:59:33.088Z,100717
2018-12-15T22:02:01.924Z,100711
2018-12-15T22:04:31.522Z,100718
2018-12-15T22:07:01.372Z,100702
2018-12-15T22:09:30.212Z,100692
2018-12-15T22:11:59.075Z,100683
2018-12-15T22:14:27.952Z,100680
2018-12-15T22:16:56.848Z,100670
2018-12-15T22:19:25.691Z,100657
2018-12-15T22:21:55.274Z,100648
2018-12-15T22:24:24.159Z,100643
2018-12-15T22:26:52.958Z,100622
2018-12-15T22:29:21.816Z,100614
2018-12-15T22:31:50.766Z,100599
2018-12-15T22:34:19.611Z,100600
2018-12-15T22:36:48.460Z,100597
2018-12-15T22:39:17.300Z,100592
2018-12-15T22:41:46.163Z,100577
2018-12-15T22:44:15.017Z,100576
2018-12-15T22:46:43.855Z,100560
2018-12-15T22:49:12.717Z,100558
2018-12-15T22:51:41.567Z,100553
2018-12-15T22:54:11.146Z,100548
2018-12-15T22:56:40.013Z,100547
2018-12-15T22:59:08.844Z,100543
2018-12-15T23:01:43.310Z,100541
2018-12-15T23:04:12.151Z,100544
2018-12-15T23:06:41.735Z,100541
2018-12-15T23:09:10.613Z,100542
2018-12-15T23:11:39.437Z,100524
2018-12-15T23:14:08.266Z,100524
2018-12-15T23:16:37.101Z,100515
2018-12-15T23:19:05.967Z,100491
2018-12-15T23:21:34.800Z,100518
2018-12-15T23:24:03.635Z,100502
2018-12-15T23:26:32.479Z,100504
2018-12-15T23:29:02.043Z,100485
2018-12-15T23:31:30.882Z,100499
2018-12-15T23:33:59.730Z,100491
2018-12-15T23:36:28.582Z,100486
2018-12-15T23:38:57.454Z,100483
2018-12-15T23:41:26.270Z,100490
2018-12-15T23:43:55.116Z,100478
2018-12-15T23:46:24.746Z,100483
2018-12-15T23:48:53.607Z,100481
2018-12-15T23:51:23.198Z,100476
2018-12-15T23:53:52.044Z,100461
2018-12-15T23:56:20.888Z,100461
2018-12-15T23:58:49.719Z,100465
